createdAt,value
2022-10-05T00:02:17.691Z,3.00
2022-10-05T00:04:45.156Z,3.08
2022-10-05T00:07:14.767Z,3.08
2022-10-05T00:09:42.193Z,2.83
2022-10-05T00:12:16.133Z,3.03
2022-10-05T00:14:45.275Z,2.75
2022-10-05T00:17:15.398Z,3.40
2022-10-05T00:22:11.973Z,3.13
2022-10-05T00:24:39.413Z,3.23
2022-10-05T00:27:13.682Z,3.10
2022-10-05T00:29:41.116Z,2.83
2022-10-05T00:32:10.969Z,3.22
2022-10-05T00:34:38.460Z,3.30
2022-10-05T00:37:06.104Z,3.30
2022-10-05T00:39:33.700Z,2.88
2022-10-05T00:42:13.509Z,3.38
2022-10-05T00:44:42.640Z,2.78
2022-10-05T00:47:19.061Z,2.97
2022-10-05T00:49:55.560Z,3.00
2022-10-05T00:52:25.612Z,3.05
2022-10-05T00:54:58.056Z,3.00
2022-10-05T00:57:32.020Z,2.95
2022-10-05T01:00:04.639Z,3.08
2022-10-05T01:02:37.380Z,3.00
2022-10-05T01:05:07.510Z,2.97
2022-10-05T01:10:07.575Z,3.28
2022-10-05T01:12:38.561Z,2.90
2022-10-05T01:15:08.633Z,2.88
2022-10-05T01:20:27.187Z,3.03
2022-10-05T01:23:06.033Z,2.50
2022-10-05T01:25:37.680Z,2.83
2022-10-05T01:28:08.130Z,2.30
2022-10-05T01:30:37.602Z,2.55
2022-10-05T01:33:09.240Z,2.80
2022-10-05T01:35:40.979Z,2.70
2022-10-05T01:38:18.672Z,3.30
2022-10-05T01:40:51.141Z,3.00
2022-10-05T01:43:21.574Z,3.05
2022-10-05T01:45:54.735Z,2.80
2022-10-05T01:48:24.935Z,3.17
2022-10-05T01:53:28.408Z,2.83
2022-10-05T01:55:57.697Z,3.30
2022-10-05T01:58:29.911Z,2.77
2022-10-05T02:01:01.325Z,2.92
2022-10-05T02:03:30.962Z,3.00
2022-10-05T02:06:00.591Z,2.92
2022-10-05T02:08:31.733Z,2.83
2022-10-05T02:11:00.700Z,3.00
2022-10-05T02:13:32.138Z,2.60
2022-10-05T02:16:01.025Z,2.80
2022-10-05T02:18:31.053Z,3.42
2022-10-05T02:20:58.511Z,2.65
2022-10-05T02:23:27.836Z,2.80
2022-10-05T02:25:55.797Z,3.03
2022-10-05T02:28:24.466Z,3.10
2022-10-05T02:30:55.015Z,3.20
2022-10-05T02:33:25.115Z,2.83
2022-10-05T02:38:24.177Z,2.92
2022-10-05T02:40:54.846Z,3.00
2022-10-05T02:43:27.754Z,3.00
2022-10-05T02:46:00.298Z,2.70
2022-10-05T02:48:34.122Z,3.22
2022-10-05T02:51:04.821Z,2.70
2022-10-05T02:53:36.938Z,3.05
2022-10-05T02:56:10.934Z,3.03
2022-10-05T02:58:42.118Z,3.67
2022-10-05T03:01:13.573Z,2.88
2022-10-05T03:03:43.847Z,2.80
2022-10-05T03:06:14.083Z,2.70
2022-10-05T03:08:44.617Z,3.05
2022-10-05T03:11:15.001Z,2.95
2022-10-05T03:13:46.546Z,3.00
2022-10-05T03:16:22.017Z,2.90
2022-10-05T03:18:57.223Z,2.95
2022-10-05T03:21:33.811Z,2.60
2022-10-05T03:24:10.018Z,3.58
2022-10-05T03:26:40.908Z,3.00
2022-10-05T03:29:11.109Z,2.92
2022-10-05T03:34:11.167Z,2.83
2022-10-05T03:36:42.237Z,3.03
2022-10-05T03:39:11.442Z,3.13
2022-10-05T03:41:41.895Z,2.90
2022-10-05T03:44:16.602Z,2.65
2022-10-05T03:46:50.875Z,3.10
2022-10-05T03:49:21.744Z,3.00
2022-10-05T03:51:51.229Z,3.10
2022-10-05T03:54:21.699Z,3.03
2022-10-05T03:56:51.009Z,3.17
2022-10-05T03:59:20.725Z,3.00
2022-10-05T04:01:52.136Z,2.80
2022-10-05T04:04:21.040Z,3.05
2022-10-05T04:06:49.229Z,3.15
2022-10-05T04:09:17.965Z,2.78
2022-10-05T04:11:47.740Z,2.83
2022-10-05T04:14:16.179Z,3.25
2022-10-05T04:16:44.979Z,3.00
2022-10-05T04:19:15.935Z,3.10
2022-10-05T04:21:47.627Z,2.92
2022-10-05T04:24:16.903Z,2.90
2022-10-05T04:26:49.299Z,3.20
2022-10-05T04:29:28.494Z,2.80
2022-10-05T04:32:05.883Z,2.83
2022-10-05T04:34:55.886Z,2.88
2022-10-05T04:37:26.081Z,2.88
2022-10-05T04:42:25.400Z,2.90
2022-10-05T04:45:05.701Z,3.20
2022-10-05T04:47:59.164Z,3.53
2022-10-05T04:50:34.993Z,2.95
2022-10-05T04:53:05.481Z,3.03
2022-10-05T04:55:36.963Z,2.90
2022-10-05T04:58:10.100Z,3.00
2022-10-05T05:00:44.320Z,2.90
2022-10-05T05:03:46.753Z,3.00
2022-10-05T05:06:22.789Z,3.00
2022-10-05T05:09:12.908Z,2.88
2022-10-05T05:14:32.909Z,3.15
2022-10-05T05:17:12.212Z,2.92
2022-10-05T05:22:14.065Z,3.15
2022-10-05T05:24:47.021Z,3.00
2022-10-05T05:27:33.012Z,2.90
2022-10-05T05:30:04.551Z,2.95
2022-10-05T05:32:39.286Z,3.30
2022-10-05T05:35:31.080Z,3.05
2022-10-05T05:38:03.184Z,3.13
2022-10-05T05:40:33.053Z,3.00
2022-10-05T05:43:01.520Z,3.47
2022-10-05T05:45:35.053Z,2.85
2022-10-05T05:48:03.512Z,2.80
2022-10-05T05:50:35.441Z,3.42
2022-10-05T05:53:07.161Z,3.72
2022-10-05T05:55:36.334Z,3.55
2022-10-05T05:58:04.968Z,4.32
2022-10-05T06:00:33.579Z,4.40
2022-10-05T06:03:03.233Z,4.25
2022-10-05T06:05:32.323Z,5.47
2022-10-05T06:08:02.106Z,4.68
2022-10-05T06:10:33.876Z,6.00
2022-10-05T06:13:05.850Z,5.15
2022-10-05T06:15:35.047Z,5.32
2022-10-05T06:18:03.565Z,7.80
2022-10-05T06:20:33.563Z,7.10
2022-10-05T06:23:02.363Z,7.00
2022-10-05T06:25:34.575Z,6.93
2022-10-05T06:28:04.736Z,6.78
2022-10-05T06:33:07.601Z,9.00
2022-10-05T06:35:42.264Z,8.05
2022-10-05T06:38:16.551Z,9.35
2022-10-05T06:40:57.543Z,10.18
2022-10-05T06:43:40.908Z,8.82
2022-10-05T06:46:10.367Z,9.93
2022-10-05T06:48:46.841Z,9.38
2022-10-05T06:51:18.592Z,8.85
2022-10-05T06:53:48.947Z,8.38
2022-10-05T06:56:19.048Z,7.95
2022-10-05T07:01:25.645Z,7.97
2022-10-05T07:04:06.472Z,8.82
2022-10-05T07:06:35.124Z,8.45
2022-10-05T07:09:14.116Z,8.68
2022-10-05T07:12:05.550Z,8.18
2022-10-05T07:14:44.215Z,8.85
2022-10-05T07:17:33.159Z,9.73
2022-10-05T07:20:04.226Z,9.05
2022-10-05T07:22:45.852Z,8.23
2022-10-05T07:25:14.400Z,8.15
2022-10-05T07:27:49.548Z,7.57
2022-10-05T07:30:19.176Z,7.70
2022-10-05T07:32:50.222Z,6.70
2022-10-05T07:35:36.465Z,6.53
2022-10-05T07:38:05.513Z,6.45
2022-10-05T07:40:34.267Z,6.35
2022-10-05T07:43:08.752Z,6.22
2022-10-05T07:45:40.317Z,6.28
2022-10-05T07:48:12.765Z,6.18
2022-10-05T07:50:43.615Z,5.85
2022-10-05T07:53:14.848Z,7.95
2022-10-05T07:55:45.444Z,7.32
2022-10-05T07:58:17.439Z,6.30
2022-10-05T08:00:59.460Z,7.13
2022-10-05T08:03:30.561Z,7.72
2022-10-05T08:05:58.834Z,6.72
2022-10-05T08:08:29.205Z,6.47
2022-10-05T08:10:59.282Z,6.55
2022-10-05T08:13:30.721Z,6.30
2022-10-05T08:15:59.002Z,7.63
2022-10-05T08:18:38.323Z,8.45
2022-10-05T08:21:11.668Z,8.00
2022-10-05T08:23:41.655Z,7.18
2022-10-05T08:26:16.118Z,7.05
2022-10-05T08:28:47.425Z,7.60
2022-10-05T08:31:17.849Z,6.80
2022-10-05T08:33:54.368Z,7.00
2022-10-05T08:36:25.076Z,6.47
2022-10-05T08:38:54.588Z,7.10
2022-10-05T08:41:42.982Z,6.80
2022-10-05T08:44:35.051Z,6.28
2022-10-05T08:47:09.309Z,5.95
2022-10-05T08:50:00.038Z,5.38
2022-10-05T08:52:28.986Z,6.13
2022-10-05T08:55:20.818Z,5.80
2022-10-05T08:58:03.254Z,5.97
2022-10-05T09:00:35.397Z,5.25
2022-10-05T09:03:44.318Z,5.65
2022-10-05T09:06:20.605Z,6.10
2022-10-05T09:09:20.805Z,8.20
2022-10-05T09:14:38.835Z,6.88
2022-10-05T09:17:38.564Z,8.90
2022-10-05T09:20:19.263Z,8.57
2022-10-05T09:22:58.793Z,10.27
2022-10-05T09:25:42.061Z,9.10
2022-10-05T09:28:25.300Z,8.95
2022-10-05T09:31:14.431Z,8.70
2022-10-05T09:34:02.412Z,8.10
2022-10-05T09:37:08.028Z,7.47
2022-10-05T09:40:07.035Z,8.50
2022-10-05T09:42:50.824Z,9.13
2022-10-05T09:45:49.943Z,8.65
2022-10-05T09:48:43.844Z,8.73
2022-10-05T09:51:49.766Z,8.25
2022-10-05T09:55:01.141Z,7.43
2022-10-05T09:57:59.178Z,14.00
2022-10-05T10:00:31.303Z,16.60
2022-10-05T10:05:34.412Z,11.45
2022-10-05T10:08:25.296Z,12.25
2022-10-05T10:11:02.502Z,10.52
2022-10-05T10:14:08.188Z,10.13
2022-10-05T10:16:49.502Z,9.98
2022-10-05T10:19:31.439Z,10.32
2022-10-05T10:22:20.821Z,9.88
2022-10-05T10:25:16.456Z,9.57
2022-10-05T10:27:54.055Z,9.80
2022-10-05T10:30:33.138Z,10.00
2022-10-05T10:33:13.624Z,8.82
2022-10-05T10:35:41.058Z,8.57
2022-10-05T10:38:24.615Z,19.73
2022-10-05T10:41:04.463Z,10.07
2022-10-05T10:43:41.003Z,14.07
2022-10-05T10:46:14.344Z,11.23
2022-10-05T10:48:56.012Z,10.40
2022-10-05T10:51:39.398Z,10.20
2022-10-05T10:54:40.815Z,10.85
2022-10-05T10:57:10.255Z,10.27
2022-10-05T11:00:11.100Z,9.68
2022-10-05T11:03:02.390Z,10.10
2022-10-05T11:05:48.909Z,9.48
2022-10-05T11:08:48.912Z,8.90
2022-10-05T11:11:23.991Z,9.05
2022-10-05T11:14:02.589Z,9.27
2022-10-05T11:16:59.210Z,8.23
2022-10-05T11:20:03.222Z,7.97
2022-10-05T11:22:52.779Z,8.55
2022-10-05T11:25:50.127Z,8.55
2022-10-05T11:28:35.469Z,8.10
2022-10-05T11:31:29.176Z,9.23
2022-10-05T11:34:25.767Z,8.27
2022-10-05T11:37:12.319Z,8.75
2022-10-05T11:39:44.654Z,8.55
2022-10-05T11:42:35.309Z,8.68
2022-10-05T11:45:23.427Z,7.70
2022-10-05T11:48:14.572Z,8.25
2022-10-05T11:50:45.082Z,5.07
2022-10-05T11:53:14.890Z,4.93
2022-10-05T11:55:43.313Z,5.00
2022-10-05T11:58:14.027Z,4.07
2022-10-05T12:00:43.099Z,4.63
2022-10-05T12:03:23.781Z,5.25
2022-10-05T12:05:58.377Z,5.78
2022-10-05T12:08:33.211Z,5.90
2022-10-05T12:11:06.517Z,5.28
2022-10-05T12:13:38.643Z,5.68
2022-10-05T12:16:07.872Z,5.35
2022-10-05T12:18:47.563Z,5.17
2022-10-05T12:21:19.131Z,3.75
2022-10-05T12:23:48.129Z,3.78
2022-10-05T12:26:16.146Z,3.40
2022-10-05T12:28:45.937Z,3.67
2022-10-05T12:31:19.316Z,3.95
2022-10-05T12:33:52.354Z,4.13
2022-10-05T12:36:21.441Z,3.30
2022-10-05T12:38:52.748Z,3.78
2022-10-05T12:41:22.227Z,3.30
2022-10-05T12:43:57.874Z,3.40
2022-10-05T12:46:28.235Z,3.00
2022-10-05T12:49:05.761Z,2.75
2022-10-05T12:51:37.770Z,2.83
2022-10-05T12:54:10.202Z,2.92
2022-10-05T12:56:42.544Z,3.20
2022-10-05T12:59:14.179Z,3.03
2022-10-05T13:01:42.707Z,3.42
2022-10-05T13:04:18.933Z,3.10
2022-10-05T13:06:48.356Z,3.67
2022-10-05T13:09:18.622Z,3.80
2022-10-05T13:11:47.572Z,3.10
2022-10-05T13:14:19.086Z,3.22
2022-10-05T13:16:54.803Z,3.10
2022-10-05T13:19:31.187Z,2.70
2022-10-05T13:22:05.343Z,3.10
2022-10-05T13:24:35.532Z,2.70
2022-10-05T13:27:05.938Z,2.83
2022-10-05T13:29:36.160Z,2.88
2022-10-05T13:32:05.673Z,2.97
2022-10-05T13:34:36.921Z,3.15
2022-10-05T13:37:08.494Z,3.05
2022-10-05T13:39:46.290Z,2.53
2022-10-05T13:42:15.937Z,2.90
2022-10-05T13:44:46.137Z,2.25
2022-10-05T13:47:16.622Z,2.10
2022-10-05T13:49:48.558Z,2.10
2022-10-05T13:52:25.623Z,2.25
2022-10-05T13:54:57.089Z,2.72
2022-10-05T13:57:44.837Z,2.78
2022-10-05T14:00:18.147Z,2.30
2022-10-05T14:02:48.812Z,2.60
2022-10-05T14:05:19.430Z,2.20
2022-10-05T14:07:50.640Z,2.42
2022-10-05T14:10:34.766Z,2.30
2022-10-05T14:13:02.641Z,2.40
2022-10-05T14:15:30.944Z,2.47
2022-10-05T14:17:58.362Z,2.80
2022-10-05T14:20:28.082Z,2.60
2022-10-05T14:22:58.176Z,2.50
2022-10-05T14:25:25.613Z,2.25
2022-10-05T14:27:58.209Z,2.60
2022-10-05T14:30:26.283Z,2.35
2022-10-05T14:32:56.048Z,2.60
2022-10-05T14:35:25.309Z,2.58
2022-10-05T14:37:57.389Z,2.70
2022-10-05T14:40:30.080Z,2.20
2022-10-05T14:42:57.656Z,2.35
2022-10-05T14:45:26.138Z,2.30
2022-10-05T14:47:56.077Z,2.40
2022-10-05T14:50:29.335Z,2.50
2022-10-05T14:53:16.472Z,2.22
2022-10-05T14:56:01.860Z,2.40
2022-10-05T14:58:36.623Z,2.50
2022-10-05T15:01:12.651Z,2.50
2022-10-05T15:03:47.448Z,2.60
2022-10-05T15:06:19.370Z,2.47
2022-10-05T15:08:54.023Z,2.20
2022-10-05T15:11:28.210Z,2.30
2022-10-05T15:13:55.658Z,2.30
2022-10-05T15:16:24.812Z,2.70
2022-10-05T15:18:56.615Z,2.30
2022-10-05T15:21:42.128Z,2.38
2022-10-05T15:24:13.092Z,2.30
2022-10-05T15:26:46.716Z,2.25
2022-10-05T15:29:25.895Z,2.50
2022-10-05T15:31:55.888Z,2.63
2022-10-05T15:34:25.722Z,2.80
2022-10-05T15:36:56.039Z,2.28
2022-10-05T15:39:27.519Z,2.60
2022-10-05T15:42:00.209Z,2.20
2022-10-05T15:44:38.502Z,2.45
2022-10-05T15:47:06.989Z,2.50
2022-10-05T15:49:39.312Z,2.30
2022-10-05T15:52:10.795Z,2.40
2022-10-05T15:55:09.084Z,2.20
2022-10-05T15:57:39.873Z,2.58
2022-10-05T16:00:10.609Z,2.33
2022-10-05T16:02:42.495Z,2.55
2022-10-05T16:05:46.511Z,2.35
2022-10-05T16:08:50.811Z,2.40
2022-10-05T16:11:25.321Z,2.60
2022-10-05T16:13:54.033Z,2.50
2022-10-05T16:16:22.374Z,2.88
2022-10-05T16:18:54.926Z,2.47
2022-10-05T16:21:26.640Z,2.53
2022-10-05T16:24:04.780Z,2.42
2022-10-05T16:26:38.906Z,2.80
2022-10-05T16:29:09.499Z,2.70
2022-10-05T16:31:41.048Z,2.88
2022-10-05T16:34:17.283Z,2.40
2022-10-05T16:36:52.115Z,2.67
2022-10-05T16:39:22.329Z,2.53
2022-10-05T16:41:54.815Z,2.50
2022-10-05T16:44:25.882Z,2.40
2022-10-05T16:46:57.353Z,3.00
2022-10-05T16:49:29.646Z,2.67
2022-10-05T16:51:58.952Z,2.60
2022-10-05T16:54:27.762Z,2.90
2022-10-05T16:56:59.257Z,2.60
2022-10-05T17:00:00.241Z,2.50
2022-10-05T17:02:35.940Z,2.97
2022-10-05T17:05:11.148Z,2.72
2022-10-05T17:07:48.706Z,2.92
2022-10-05T17:10:40.993Z,3.15
2022-10-05T17:13:16.459Z,2.83
2022-10-05T17:15:54.897Z,2.90
2022-10-05T17:19:09.645Z,2.90
2022-10-05T17:21:38.705Z,2.63
2022-10-05T17:24:24.469Z,3.00
2022-10-05T17:26:59.373Z,3.10
2022-10-05T17:29:36.301Z,2.90
2022-10-05T17:32:33.554Z,2.70
2022-10-05T17:35:37.324Z,3.00
2022-10-05T17:38:24.280Z,3.13
2022-10-05T17:41:18.019Z,3.30
2022-10-05T17:44:21.383Z,3.10
2022-10-05T17:46:57.778Z,2.60
2022-10-05T17:50:09.916Z,3.20
2022-10-05T17:53:01.906Z,2.80
2022-10-05T17:55:40.417Z,2.97
2022-10-05T17:58:54.455Z,3.03
2022-10-05T18:01:33.940Z,3.10
2022-10-05T18:04:30.653Z,3.08
2022-10-05T18:07:05.866Z,2.90
2022-10-05T18:10:07.704Z,3.03
2022-10-05T18:13:11.310Z,3.20
2022-10-05T18:16:11.977Z,3.05
2022-10-05T18:19:23.679Z,2.80
2022-10-05T18:22:12.129Z,2.83
2022-10-05T18:24:53.274Z,2.95
2022-10-05T18:27:36.840Z,2.80
2022-10-05T18:30:11.148Z,2.72
2022-10-05T18:33:14.760Z,2.88
2022-10-05T18:36:11.606Z,2.92
2022-10-05T18:38:57.370Z,2.70
2022-10-05T18:41:35.143Z,2.90
2022-10-05T18:44:19.003Z,2.88
2022-10-05T18:47:05.016Z,2.45
2022-10-05T18:49:47.309Z,2.90
2022-10-05T18:52:25.530Z,2.85
2022-10-05T18:54:59.360Z,2.72
2022-10-05T18:57:46.230Z,2.55
2022-10-05T19:00:26.692Z,2.75
2022-10-05T19:02:58.489Z,2.60
2022-10-05T19:05:52.537Z,2.70
2022-10-05T19:08:32.908Z,2.47
2022-10-05T19:14:04.675Z,2.83
2022-10-05T19:17:15.758Z,2.15
2022-10-05T19:20:02.594Z,2.90
2022-10-05T19:22:46.094Z,2.53
2022-10-05T19:25:31.506Z,2.38
2022-10-05T19:28:17.341Z,2.60
2022-10-05T19:31:16.886Z,2.47
2022-10-05T19:33:54.803Z,2.70
2022-10-05T19:36:40.884Z,2.60
2022-10-05T19:39:11.491Z,2.80
2022-10-05T19:41:59.427Z,2.53
2022-10-05T19:44:35.485Z,2.78
2022-10-05T19:47:13.308Z,2.70
2022-10-05T19:50:08.326Z,2.40
2022-10-05T19:53:05.868Z,2.60
2022-10-05T19:55:39.996Z,2.60
2022-10-05T19:58:26.417Z,2.63
2022-10-05T20:01:06.990Z,2.85
2022-10-05T20:03:36.576Z,2.60
2022-10-05T20:06:04.782Z,2.67
2022-10-05T20:08:39.448Z,3.00
2022-10-05T20:11:12.021Z,2.78
2022-10-05T20:13:41.575Z,2.88
2022-10-05T20:16:38.802Z,2.75
2022-10-05T20:19:24.142Z,2.50
2022-10-05T20:21:52.463Z,2.90
2022-10-05T20:24:20.496Z,2.60
2022-10-05T20:27:16.154Z,2.47
2022-10-05T20:29:44.987Z,2.30
2022-10-05T20:32:15.087Z,2.33
2022-10-05T20:37:11.363Z,2.15
2022-10-05T20:39:38.836Z,2.40
2022-10-05T20:42:07.268Z,2.40
2022-10-05T20:44:34.783Z,2.70
2022-10-05T20:47:02.632Z,2.60
2022-10-05T20:49:31.856Z,2.90
2022-10-05T20:51:59.421Z,2.60
2022-10-05T20:54:27.103Z,2.35
2022-10-05T20:56:55.552Z,2.17
2022-10-05T20:59:23.235Z,2.75
2022-10-05T21:01:50.660Z,2.40
2022-10-05T21:04:18.619Z,2.40
2022-10-05T21:06:47.472Z,2.70
2022-10-05T21:09:15.643Z,2.28
2022-10-05T21:11:43.108Z,2.60
2022-10-05T21:14:10.813Z,2.47
2022-10-05T21:16:40.598Z,2.30
2022-10-05T21:19:09.229Z,2.65
2022-10-05T21:21:36.760Z,2.50
2022-10-05T21:24:05.773Z,2.50
2022-10-05T21:26:33.280Z,2.20
2022-10-05T21:29:01.019Z,2.50
2022-10-05T21:31:28.786Z,2.70
2022-10-05T21:33:56.274Z,2.25
2022-10-05T21:36:24.789Z,2.20
2022-10-05T21:38:53.021Z,2.42
2022-10-05T21:41:21.963Z,2.35
2022-10-05T21:43:49.474Z,2.20
2022-10-05T21:46:18.240Z,2.47
2022-10-05T21:48:45.691Z,2.22
2022-10-05T21:51:16.321Z,2.50
2022-10-05T21:53:46.668Z,2.10
2022-10-05T21:56:15.295Z,2.47
2022-10-05T21:58:44.596Z,2.33
2022-10-05T22:01:12.119Z,2.50
2022-10-05T22:03:39.597Z,2.33
2022-10-05T22:06:07.643Z,2.40
2022-10-05T22:08:35.378Z,2.60
2022-10-05T22:11:11.631Z,2.30
2022-10-05T22:13:46.502Z,2.10
2022-10-05T22:16:14.402Z,2.20
2022-10-05T22:18:42.021Z,2.45
2022-10-05T22:21:11.211Z,2.10
2022-10-05T22:23:38.788Z,2.13
2022-10-05T22:26:06.533Z,2.15
2022-10-05T22:28:34.090Z,2.00
2022-10-05T22:31:03.767Z,2.30
2022-10-05T22:33:31.208Z,2.50
2022-10-05T22:35:58.808Z,2.30
2022-10-05T22:38:26.684Z,1.98
2022-10-05T22:40:54.435Z,2.13
2022-10-05T22:43:21.898Z,2.28
2022-10-05T22:45:49.456Z,2.30
2022-10-05T22:48:18.444Z,2.22
2022-10-05T22:50:45.904Z,2.20
2022-10-05T22:53:13.351Z,1.90
2022-10-05T22:55:40.838Z,2.20
2022-10-05T22:58:08.266Z,2.17
2022-10-05T23:00:57.103Z,2.28
2022-10-05T23:03:24.557Z,2.15
2022-10-05T23:05:57.189Z,2.17
2022-10-05T23:08:24.891Z,2.00
2022-10-05T23:10:52.612Z,2.60
2022-10-05T23:13:22.283Z,2.42
2022-10-05T23:15:49.708Z,1.90
2022-10-05T23:18:17.548Z,2.00
2022-10-05T23:20:46.292Z,2.15
2022-10-05T23:23:13.726Z,2.20
2022-10-05T23:25:41.141Z,2.22
2022-10-05T23:28:08.631Z,2.30
2022-10-05T23:30:36.122Z,1.98
2022-10-05T23:33:03.556Z,2.25
2022-10-05T23:35:31.007Z,2.00
2022-10-05T23:38:00.041Z,2.05
2022-10-05T23:40:27.962Z,2.22
2022-10-05T23:42:55.995Z,2.33
2022-10-05T23:45:23.403Z,2.00
2022-10-05T23:47:50.848Z,2.10
2022-10-05T23:50:20.429Z,1.90
2022-10-05T23:52:47.831Z,2.10
2022-10-05T23:55:16.559Z,2.40
2022-10-05T23:57:43.975Z,2.20
